Royse City's Hourly Summary for Saturday, May 12, 2018
Hour Temp
(f)
RH
(%)
Solar Rad.
(MJ/m2)
Rainfall
(in)
Wind
(mph)
5/12/2018 12:00 AM 73 67 0 0 2.41
5/12/2018 1:00 AM 73 72 0 0 2.8
5/12/2018 2:00 AM 74 75 0 0 2.92
5/12/2018 3:00 AM 72 76 0 0 2.46
5/12/2018 4:00 AM 71 82 0 0 1.9
5/12/2018 5:00 AM 71 85 0 0 2.03
5/12/2018 6:00 AM 71 85 0 0 1.68
5/12/2018 7:00 AM 71 85 0.03 0 1.5
5/12/2018 8:00 AM 72 83 0.3 0 1.78
5/12/2018 9:00 AM 75 73 1.1 0 2.31
5/12/2018 10:00 AM 76 69 1.24 0 3.38
5/12/2018 11:00 AM 79 61 2.27 0 3.24
5/12/2018 12:00 PM 80 57 2.21 0 3.44
5/12/2018 1:00 PM 83 50 3.02 0 3.25
5/12/2018 2:00 PM 84 46 2.63 0 3.26
5/12/2018 3:00 PM 85 45 2.87 0 3.54
5/12/2018 4:00 PM 86 43 2.25 0 3.25
5/12/2018 5:00 PM 86 42 2.06 0 3.42
5/12/2018 6:00 PM 86 42 0.66 0 3.81
5/12/2018 7:00 PM 85 44 0.86 0 2.56
5/12/2018 8:00 PM 83 48 0.26 0 1.17
5/12/2018 9:00 PM 78 57 0.01 0 0.49
5/12/2018 10:00 PM 76 63 0 0 0.5
5/12/2018 11:00 PM 74 69 0 0 0.73
Data Summary 77 63 21.77 0.00 2.41